Time;durP1;ratioP1;P1;durP2;ratioP2;P2;SDS_P1;SDS_P2;PMS_P1;PMS_P2;Temp;Humidity;BMP_temperature;BMP_pressure;BME280_temperature;BME280_humidity;BME280_pressure;Samples;Min_cycle;Max_cycle;Signal;HPM_P1;HPM_P2
2022/07/23 00:01:32;;;;;;;;;;;;;;;30.83;30.85;101011.47;4423246;32;20012;-68
2022/07/23 00:03:58;;;;;;;;;;;;;;;30.79;30.80;101013.19;4422517;32;20040;-68
2022/07/23 00:06:24;;;;;;;;;;;;;;;30.89;30.13;101011.28;4424371;32;20373;-68
2022/07/23 00:08:49;;;;;;;;;;;;;;;30.87;30.16;101002.38;4423255;32;20029;-68
2022/07/23 00:11:15;;;;;;;;;;;;;;;30.84;30.21;101010.09;4422356;32;20375;-68
2022/07/23 00:13:40;;;;;;;;;;;;;;;30.86;30.42;101000.06;4422852;32;20468;-68
2022/07/23 00:16:06;;;;;;;;;;;;;;;30.83;30.85;100999.03;4421549;32;20357;-68
2022/07/23 00:18:31;;;;;;;;;;;;;;;30.89;30.73;100996.00;4419412;32;20008;-68
2022/07/23 00:20:57;;;;;;;;;;;;;;;30.73;30.30;100990.09;4423930;32;20317;-68
2022/07/23 00:23:24;;;;;;;;;;;;;;;30.72;30.02;101002.28;4421841;32;19985;-68
2022/07/23 00:25:50;;;;;;;;;;;;;;;30.77;30.01;101007.19;4422977;32;19972;-68
2022/07/23 00:28:16;;;;;;;;;;;;;;;30.82;30.18;100994.59;4423462;32;20376;-68
2022/07/23 00:30:41;;;;;;;;;;;;;;;30.90;29.86;100997.53;4421488;32;19958;-68
2022/07/23 00:33:07;;;;;;;;;;;;;;;30.86;29.98;100994.25;4423953;32;20448;-68
2022/07/23 00:35:35;;;;;;;;;;;;;;;30.91;30.12;101005.69;4422520;32;19969;-67
2022/07/23 00:38:00;;;;;;;;;;;;;;;31.02;30.18;100998.75;4411392;32;19954;-67
2022/07/23 00:40:26;;;;;;;;;;;;;;;31.09;29.89;101007.50;4422311;32;20005;-67
2022/07/23 00:42:52;;;;;;;;;;;;;;;30.95;30.20;101002.41;4423048;32;20000;-67
2022/07/23 00:45:17;;;;;;;;;;;;;;;30.76;30.41;100996.91;4425768;32;19969;-67
2022/07/23 00:47:43;;;;;;;;;;;;;;;31.06;30.32;100999.94;4424447;32;19996;-67
2022/07/23 00:50:09;;;;;;;;;;;;;;;31.01;29.95;100992.16;4422303;32;20031;-67
2022/07/23 00:52:35;;;;;;;;;;;;;;;30.98;29.81;100987.50;4421600;32;20299;-67
2022/07/23 00:55:01;;;;;;;;;;;;;;;31.17;29.73;100987.94;4424564;32;20006;-67
2022/07/23 00:57:29;;;;;;;;;;;;;;;31.05;30.01;100980.94;4424480;32;20323;-67
2022/07/23 00:59:57;;;;;;;;;;;;;;;30.98;29.66;100984.56;4421801;32;19973;-67
2022/07/23 01:02:23;;;;;;;;;;;;;;;30.77;31.01;100975.97;4422091;32;20496;-67
2022/07/23 01:04:49;;;;;;;;;;;;;;;30.84;30.83;100972.31;4422455;32;20009;-67
2022/07/23 01:07:15;;;;;;;;;;;;;;;30.88;30.92;100971.97;4423661;32;19963;-67
2022/07/23 01:09:41;;;;;;;;;;;;;;;30.91;31.03;100967.91;4423483;32;19961;-67
2022/07/23 01:12:07;;;;;;;;;;;;;;;30.83;31.11;100959.16;4426289;32;20012;-67
2022/07/23 01:14:33;;;;;;;;;;;;;;;30.80;31.18;100956.63;4423089;32;19961;-67
2022/07/23 01:16:58;;;;;;;;;;;;;;;30.69;32.05;100960.62;4422400;32;20094;-67
2022/07/23 01:19:24;;;;;;;;;;;;;;;30.70;31.95;100967.97;4420893;32;19962;-67
2022/07/23 01:21:50;;;;;;;;;;;;;;;30.73;31.82;100966.88;4423397;32;19973;-68
2022/07/23 01:24:16;;;;;;;;;;;;;;;30.76;31.77;100962.81;4422608;32;19994;-67
2022/07/23 01:26:43;;;;;;;;;;;;;;;30.85;31.47;100964.38;4423616;32;19984;-67
2022/07/23 01:29:09;;;;;;;;;;;;;;;30.99;31.25;100954.19;4422169;32;20030;-67
2022/07/23 01:31:35;;;;;;;;;;;;;;;30.92;31.30;100959.97;4423207;32;19953;-67
2022/07/23 01:34:00;;;;;;;;;;;;;;;30.99;31.07;100960.00;4421770;32;19967;-68
2022/07/23 01:36:26;;;;;;;;;;;;;;;30.82;31.53;100956.81;4422198;32;20035;-68
2022/07/23 01:38:52;;;;;;;;;;;;;;;30.82;31.83;100962.63;4421425;32;19958;-68
2022/07/23 01:41:17;;;;;;;;;;;;;;;30.76;31.41;100962.03;4422865;32;20054;-68
2022/07/23 01:43:43;;;;;;;;;;;;;;;30.85;31.57;100961.47;4422041;32;20379;-68
2022/07/23 01:46:08;;;;;;;;;;;;;;;30.92;31.02;100957.06;4424461;32;20436;-68
2022/07/23 01:48:34;;;;;;;;;;;;;;;30.95;31.21;100958.81;4419071;32;20398;-68
2022/07/23 01:50:59;;;;;;;;;;;;;;;30.99;31.17;100962.13;4423618;32;20025;-68
2022/07/23 01:53:25;;;;;;;;;;;;;;;31.02;31.30;100953.03;4422848;32;19986;-68
2022/07/23 01:55:50;;;;;;;;;;;;;;;30.79;31.78;100961.66;4425951;32;19989;-68
2022/07/23 01:58:16;;;;;;;;;;;;;;;31.05;31.51;100959.81;4422274;32;20013;-68
2022/07/23 02:00:41;;;;;;;;;;;;;;;31.07;31.23;100954.19;4421655;32;20000;-68
2022/07/23 02:03:07;;;;;;;;;;;;;;;31.12;31.45;100954.00;4420828;32;20080;-68
2022/07/23 02:05:33;;;;;;;;;;;;;;;30.97;31.40;100965.59;4422458;32;19957;-68
2022/07/23 02:07:59;;;;;;;;;;;;;;;31.21;31.11;100965.09;4422447;32;20394;-68
2022/07/23 02:10:25;;;;;;;;;;;;;;;31.13;31.46;100951.87;4421587;32;20436;-68
2022/07/23 02:12:50;;;;;;;;;;;;;;;31.01;31.20;100951.44;4420765;32;19949;-68
2022/07/23 02:15:16;;;;;;;;;;;;;;;31.14;31.08;100951.31;4421184;32;19969;-68
2022/07/23 02:17:41;;;;;;;;;;;;;;;31.01;31.76;100954.34;4422522;32;20494;-68
2022/07/23 02:20:08;;;;;;;;;;;;;;;30.97;31.41;100950.28;4421286;32;19990;-68
2022/07/23 02:22:34;;;;;;;;;;;;;;;31.03;31.36;100945.06;4421988;32;19981;-68
2022/07/23 02:24:59;;;;;;;;;;;;;;;31.06;31.30;100938.87;4421788;32;20011;-68
2022/07/23 02:27:25;;;;;;;;;;;;;;;30.76;31.65;100944.59;4423704;32;20013;-68
2022/07/23 02:29:50;;;;;;;;;;;;;;;31.06;31.44;100941.00;4421390;32;20064;-68
2022/07/23 02:32:16;;;;;;;;;;;;;;;31.02;31.31;100935.59;4422354;32;20256;-68
2022/07/23 02:34:41;;;;;;;;;;;;;;;31.13;31.47;100935.22;4420758;32;20715;-68
2022/07/23 02:37:08;;;;;;;;;;;;;;;31.04;31.42;100932.84;4423384;32;20432;-68
2022/07/23 02:39:35;;;;;;;;;;;;;;;31.07;31.47;100939.66;4420228;32;20008;-68
2022/07/23 02:42:01;;;;;;;;;;;;;;;30.69;31.53;100940.28;4422420;32;19996;-68
2022/07/23 02:44:26;;;;;;;;;;;;;;;30.79;31.32;100947.12;4420452;32;20441;-68
2022/07/23 02:46:52;;;;;;;;;;;;;;;30.66;31.58;100940.66;4422947;32;19950;-68
2022/07/23 02:49:18;;;;;;;;;;;;;;;30.69;31.70;100939.50;4422353;32;20006;-68
2022/07/23 02:51:45;;;;;;;;;;;;;;;30.82;31.43;100936.47;4419868;32;19971;-67
2022/07/23 02:54:11;;;;;;;;;;;;;;;30.38;31.75;100946.53;4419363;32;20586;-68
2022/07/23 02:56:37;;;;;;;;;;;;;;;30.43;31.94;100942.69;4421688;32;20047;-68
2022/07/23 02:59:02;;;;;;;;;;;;;;;30.48;32.07;100935.91;4421362;32;19965;-68
2022/07/23 03:01:28;;;;;;;;;;;;;;;30.38;32.36;100940.72;4420475;32;20041;-67
2022/07/23 03:03:53;;;;;;;;;;;;;;;30.37;32.63;100936.25;4421220;32;19961;-68
2022/07/23 03:06:18;;;;;;;;;;;;;;;30.25;32.92;100929.22;4421854;32;19989;-68
2022/07/23 03:08:44;;;;;;;;;;;;;;;30.21;32.98;100934.59;4421668;32;20527;-68
2022/07/23 03:11:11;;;;;;;;;;;;;;;29.96;33.43;100931.31;4421117;32;20422;-67
2022/07/23 03:13:37;;;;;;;;;;;;;;;30.05;33.25;100916.28;4422473;32;20049;-67
2022/07/23 03:16:03;;;;;;;;;;;;;;;29.95;33.14;100929.00;4421311;32;20449;-67
2022/07/23 03:18:28;;;;;;;;;;;;;;;30.01;33.05;100918.78;4421497;32;19962;-67
2022/07/23 03:20:54;;;;;;;;;;;;;;;29.84;33.24;100932.19;4422299;32;19996;-67
2022/07/23 03:23:20;;;;;;;;;;;;;;;29.77;33.46;100939.50;4423185;32;20042;-68
2022/07/23 03:25:48;;;;;;;;;;;;;;;29.75;33.41;100936.38;4425052;32;19993;-68
2022/07/23 03:28:15;;;;;;;;;;;;;;;29.57;33.58;100943.16;4425408;32;19971;-67
2022/07/23 03:30:42;;;;;;;;;;;;;;;29.59;33.50;100949.19;4422442;32;19969;-67
2022/07/23 03:33:08;;;;;;;;;;;;;;;29.77;33.26;100942.41;4424384;32;20626;-67
2022/07/23 03:35:33;;;;;;;;;;;;;;;29.35;34.16;100942.94;4423990;32;19961;-67
2022/07/23 03:37:59;;;;;;;;;;;;;;;29.42;34.18;100940.12;4424137;32;20004;-67
2022/07/23 03:40:24;;;;;;;;;;;;;;;29.44;34.13;100934.53;4423982;32;19945;-67
2022/07/23 03:42:50;;;;;;;;;;;;;;;29.42;34.06;100931.41;4422569;32;19998;-67
2022/07/23 03:45:15;;;;;;;;;;;;;;;29.47;34.16;100926.81;4424059;32;20464;-68
2022/07/23 03:47:41;;;;;;;;;;;;;;;29.46;34.15;100926.06;4422534;32;20472;-68
2022/07/23 03:50:07;;;;;;;;;;;;;;;29.55;34.03;100933.47;4420954;32;20701;-68
2022/07/23 03:52:33;;;;;;;;;;;;;;;29.56;33.99;100926.31;4423809;32;20004;-68
2022/07/23 03:54:58;;;;;;;;;;;;;;;29.57;33.96;100928.66;4410752;32;20212;-68
2022/07/23 03:57:24;;;;;;;;;;;;;;;29.58;33.91;100927.34;4424430;32;19957;-67
2022/07/23 03:59:49;;;;;;;;;;;;;;;29.42;34.19;100919.81;4421403;32;20120;-68
2022/07/23 04:02:15;;;;;;;;;;;;;;;29.31;34.26;100928.81;4423635;32;20005;-68
2022/07/23 04:04:40;;;;;;;;;;;;;;;29.32;34.14;100918.00;4424693;32;20009;-68
2022/07/23 04:07:07;;;;;;;;;;;;;;;29.31;34.09;100914.31;4423191;32;20000;-68
2022/07/23 04:09:33;;;;;;;;;;;;;;;29.20;34.32;100914.59;4422671;32;20000;-68
2022/07/23 04:11:59;;;;;;;;;;;;;;;29.30;34.11;100920.69;4425092;32;20233;-68
2022/07/23 04:14:25;;;;;;;;;;;;;;;29.07;34.20;100910.97;4422959;32;20004;-68
2022/07/23 04:16:50;;;;;;;;;;;;;;;29.19;34.19;100915.94;4420874;32;19997;-68
2022/07/23 04:19:16;;;;;;;;;;;;;;;29.12;34.22;100912.97;4422687;32;20011;-68
2022/07/23 04:21:42;;;;;;;;;;;;;;;29.09;34.24;100911.19;4423596;32;19984;-68
2022/07/23 04:24:07;;;;;;;;;;;;;;;29.15;34.31;100909.72;4424983;32;20347;-68
2022/07/23 04:26:33;;;;;;;;;;;;;;;29.24;34.27;100914.25;4425088;32;20114;-67
2022/07/23 04:28:58;;;;;;;;;;;;;;;29.29;34.30;100919.13;4422419;32;20028;-67
2022/07/23 04:31:24;;;;;;;;;;;;;;;29.51;34.02;100921.47;4421040;32;19964;-67
2022/07/23 04:33:49;;;;;;;;;;;;;;;29.52;33.91;100929.59;4425148;32;20471;-67
2022/07/23 04:36:15;;;;;;;;;;;;;;;29.57;33.96;100933.69;4422004;32;19985;-66
2022/07/23 04:38:40;;;;;;;;;;;;;;;29.70;33.73;100917.00;4422104;32;20471;-66
2022/07/23 04:41:06;;;;;;;;;;;;;;;29.76;33.47;100923.41;4422789;32;20464;-66
2022/07/23 04:43:31;;;;;;;;;;;;;;;29.98;32.95;100907.53;4422682;32;19965;-66
2022/07/23 04:45:57;;;;;;;;;;;;;;;30.08;32.81;100903.53;4424502;32;20012;-66
2022/07/23 04:48:23;;;;;;;;;;;;;;;30.03;32.53;100910.28;4422055;32;19961;-67
2022/07/23 04:50:48;;;;;;;;;;;;;;;30.06;33.02;100906.22;4422588;32;19988;-67
2022/07/23 04:53:14;;;;;;;;;;;;;;;29.99;33.21;100906.97;4421641;32;19984;-66
2022/07/23 04:55:41;;;;;;;;;;;;;;;30.10;32.75;100908.78;4424485;32;19953;-67
2022/07/23 04:58:06;;;;;;;;;;;;;;;30.01;32.88;100913.00;4422419;32;20379;-67
2022/07/23 05:00:32;;;;;;;;;;;;;;;30.05;32.98;100909.69;4422256;32;20012;-67
2022/07/23 05:02:57;;;;;;;;;;;;;;;30.00;33.04;100916.47;4422545;32;20322;-66
2022/07/23 05:05:23;;;;;;;;;;;;;;;30.00;32.79;100916.47;4423185;32;20437;-66
2022/07/23 05:07:48;;;;;;;;;;;;;;;30.04;32.98;100911.06;4423109;32;19977;-66
2022/07/23 05:10:14;;;;;;;;;;;;;;;29.93;32.98;100923.75;4424961;32;19988;-66
2022/07/23 05:12:39;;;;;;;;;;;;;;;30.01;32.85;100918.78;4423772;32;20425;-66
2022/07/23 05:15:05;;;;;;;;;;;;;;;29.76;33.02;100916.88;4424112;32;19965;-66
2022/07/23 05:17:30;;;;;;;;;;;;;;;29.93;32.95;100912.16;4420014;32;19998;-66
2022/07/23 05:19:55;;;;;;;;;;;;;;;29.90;33.16;100906.69;4422189;32;19997;-66
2022/07/23 05:22:21;;;;;;;;;;;;;;;30.07;32.78;100901.97;4423116;32;20256;-66
2022/07/23 05:24:46;;;;;;;;;;;;;;;30.16;32.28;100900.69;4422261;32;20358;-66
2022/07/23 05:27:12;;;;;;;;;;;;;;;30.38;32.30;100911.66;4422102;32;19988;-66
2022/07/23 05:29:37;;;;;;;;;;;;;;;30.50;31.98;100919.47;4422321;32;20201;-67
2022/07/23 05:32:03;;;;;;;;;;;;;;;30.40;32.11;100921.34;4423614;32;19949;-67
2022/07/23 05:34:28;;;;;;;;;;;;;;;30.41;32.50;100920.03;4421058;32;20026;-67
2022/07/23 05:36:54;;;;;;;;;;;;;;;30.52;32.51;100915.97;4418637;32;19964;-67
2022/07/23 05:39:19;;;;;;;;;;;;;;;30.36;32.67;100923.06;4418570;32;20008;-66
2022/07/23 05:41:45;;;;;;;;;;;;;;;30.44;32.43;100915.19;4422613;32;20323;-66
2022/07/23 05:44:10;;;;;;;;;;;;;;;30.49;32.62;100920.81;4422217;32;20004;-66
2022/07/23 05:46:35;;;;;;;;;;;;;;;30.48;32.78;100921.37;4420358;32;19996;-67
2022/07/23 05:49:01;;;;;;;;;;;;;;;30.56;32.47;100914.25;4423256;32;20375;-67
2022/07/23 05:51:27;;;;;;;;;;;;;;;30.65;32.33;100918.78;4422472;32;19972;-67
2022/07/23 05:53:53;;;;;;;;;;;;;;;30.76;32.24;100922.13;4422878;32;20414;-66
2022/07/23 05:56:19;;;;;;;;;;;;;;;30.67;32.46;100918.94;4423269;32;19964;-66
2022/07/23 05:58:44;;;;;;;;;;;;;;;30.63;32.23;100927.28;4422092;32;19984;-66
2022/07/23 06:01:11;;;;;;;;;;;;;;;30.65;32.40;100921.66;4420973;32;19993;-66
2022/07/23 06:03:37;;;;;;;;;;;;;;;30.84;32.44;100913.44;4421876;32;20031;-66
2022/07/23 06:06:03;;;;;;;;;;;;;;;30.95;32.00;100915.97;4420939;32;21198;-66
2022/07/23 06:08:28;;;;;;;;;;;;;;;31.00;32.02;100914.25;4421129;32;19984;-67
2022/07/23 06:10:53;;;;;;;;;;;;;;;31.13;31.96;100911.19;4423368;32;20008;-66
2022/07/23 06:13:19;;;;;;;;;;;;;;;31.41;31.78;100902.31;4422553;32;20005;-67
2022/07/23 06:15:44;;;;;;;;;;;;;;;31.45;31.76;100909.31;4421576;32;20008;-67
2022/07/23 06:18:10;;;;;;;;;;;;;;;31.65;31.42;100907.53;4420906;32;19989;-67
2022/07/23 06:20:35;;;;;;;;;;;;;;;31.73;31.56;100912.03;4420829;32;20020;-67
2022/07/23 06:23:01;;;;;;;;;;;;;;;31.88;30.92;100917.09;4422159;32;19993;-67
2022/07/23 06:25:26;;;;;;;;;;;;;;;32.04;30.71;100915.69;4424806;32;20030;-66
2022/07/23 06:27:52;;;;;;;;;;;;;;;31.73;31.18;100911.25;4420871;32;19993;-66
2022/07/23 06:30:18;;;;;;;;;;;;;;;31.94;30.94;100911.84;4420252;32;19961;-66
2022/07/23 06:32:44;;;;;;;;;;;;;;;32.14;31.00;100905.78;4422827;32;19962;-67
2022/07/23 06:35:10;;;;;;;;;;;;;;;32.45;30.46;100910.16;4422685;32;20396;-67
2022/07/23 06:37:35;;;;;;;;;;;;;;;32.44;30.46;100902.78;4423564;32;19997;-67
2022/07/23 06:40:01;;;;;;;;;;;;;;;32.63;29.77;100911.06;4419579;32;20156;-67
2022/07/23 06:42:26;;;;;;;;;;;;;;;32.81;29.88;100914.84;4421190;32;20000;-67
2022/07/23 06:44:52;;;;;;;;;;;;;;;32.86;29.87;100911.75;4423463;32;19992;-67
2022/07/23 06:47:17;;;;;;;;;;;;;;;33.03;29.75;100913.97;4421991;32;19972;-67
2022/07/23 06:49:43;;;;;;;;;;;;;;;32.90;29.75;100917.16;4420111;32;19993;-67
2022/07/23 06:52:08;;;;;;;;;;;;;;;33.20;29.00;100917.00;4423115;32;20384;-67
2022/07/23 06:54:34;;;;;;;;;;;;;;;33.41;29.08;100921.13;4422600;32;19968;-67
2022/07/23 06:56:59;;;;;;;;;;;;;;;32.98;29.54;100912.09;4423532;32;19997;-67
2022/07/23 06:59:24;;;;;;;;;;;;;;;33.44;28.46;100910.44;4423597;32;20325;-67
2022/07/23 07:01:50;;;;;;;;;;;;;;;33.67;28.49;100914.72;4422595;32;19996;-67
2022/07/23 07:04:15;;;;;;;;;;;;;;;33.50;28.47;100916.81;4423357;32;20422;-67
2022/07/23 07:06:41;;;;;;;;;;;;;;;33.40;28.20;100916.66;4424027;32;20382;-67
2022/07/23 07:09:06;;;;;;;;;;;;;;;33.54;27.35;100917.94;4423381;32;20012;-67
2022/07/23 07:11:32;;;;;;;;;;;;;;;33.76;27.94;100919.09;4425878;32;19949;-67
2022/07/23 07:13:58;;;;;;;;;;;;;;;33.86;27.76;100917.06;4422841;32;20057;-67
2022/07/23 07:16:23;;;;;;;;;;;;;;;34.07;27.09;100920.38;4424121;32;19981;-67
2022/07/23 07:18:49;;;;;;;;;;;;;;;34.09;26.63;100914.72;4421644;32;19982;-67
2022/07/23 07:21:14;;;;;;;;;;;;;;;34.40;26.25;100915.97;4423581;32;20338;-67
2022/07/23 07:23:40;;;;;;;;;;;;;;;34.54;26.07;100919.31;4423924;32;20027;-67
2022/07/23 07:26:06;;;;;;;;;;;;;;;34.85;25.47;100912.47;4421373;32;19957;-67
2022/07/23 07:28:31;;;;;;;;;;;;;;;34.79;25.39;100908.25;4422771;32;20272;-67
2022/07/23 07:30:57;;;;;;;;;;;;;;;34.91;25.03;100912.22;4422736;32;20665;-67
2022/07/23 07:33:23;;;;;;;;;;;;;;;34.97;24.34;100915.63;4425955;32;20370;-67
2022/07/23 07:35:48;;;;;;;;;;;;;;;35.19;23.72;100918.25;4424455;32;20022;-67
2022/07/23 07:38:14;;;;;;;;;;;;;;;35.09;24.12;100919.56;4423782;32;20334;-68
2022/07/23 07:40:40;;;;;;;;;;;;;;;35.53;24.34;100923.97;4423896;32;20000;-68
2022/07/23 07:43:05;;;;;;;;;;;;;;;35.67;23.71;100919.22;4421039;32;20358;-68
2022/07/23 07:45:31;;;;;;;;;;;;;;;36.05;23.79;100922.25;4425653;32;19990;-68
2022/07/23 07:47:57;;;;;;;;;;;;;;;36.40;23.40;100922.00;4422438;32;20002;-68
2022/07/23 07:50:23;;;;;;;;;;;;;;;36.33;24.11;100914.16;4423163;32;20359;-68
2022/07/23 07:52:48;;;;;;;;;;;;;;;36.34;23.80;100909.81;4423768;32;20285;-68
2022/07/23 07:55:14;;;;;;;;;;;;;;;36.65;23.46;100914.44;4423461;32;19957;-68
2022/07/23 07:57:40;;;;;;;;;;;;;;;36.55;24.36;100916.62;4425949;32;20343;-68
2022/07/23 08:00:07;;;;;;;;;;;;;;;36.93;23.62;100919.53;4423009;32;19989;-68
2022/07/23 08:02:48;;;;;;;;;;;;;;;37.20;23.16;100907.59;4421730;32;19995;-68
2022/07/23 08:05:14;;;;;;;;;;;;;;;37.09;23.15;100902.38;4423545;32;20310;-68
2022/07/23 08:07:40;;;;;;;;;;;;;;;37.23;23.21;100894.59;4424399;32;19984;-68
2022/07/23 08:10:07;;;;;;;;;;;;;;;37.21;23.22;100909.91;4422117;32;19986;-68
2022/07/23 08:15:17;;;;;;;;;;;;;;;37.38;22.72;100903.03;3948940;32;15846466;-68
2022/07/23 08:17:43;;;;;;;;;;;;;;;36.99;23.36;100907.50;4434304;32;19957;-68
2022/07/23 08:20:09;;;;;;;;;;;;;;;36.96;23.00;100908.72;4435356;32;20390;-68
2022/07/23 08:22:51;;;;;;;;;;;;;;;37.23;22.50;100918.87;4435119;32;19985;-68
2022/07/23 08:25:20;;;;;;;;;;;;;;;37.30;22.77;100912.03;4436298;32;19957;-68
2022/07/23 08:27:46;;;;;;;;;;;;;;;37.33;22.75;100904.91;4436879;32;20164;-68
2022/07/23 08:30:12;;;;;;;;;;;;;;;37.70;22.25;100911.28;4433086;32;20004;-68
2022/07/23 08:38:05;;;;;;;;;;;;;;;38.09;21.76;100897.91;3952411;32;15725381;-67
2022/07/23 08:40:31;;;;;;;;;;;;;;;38.09;21.76;100897.91;4434824;32;20338;-67
2022/07/23 08:42:57;;;;;;;;;;;;;;;37.16;22.48;100907.28;4432484;32;19945;-68
2022/07/23 08:45:23;;;;;;;;;;;;;;;37.35;22.18;100904.28;4434964;32;20012;-67
2022/07/23 08:47:49;;;;;;;;;;;;;;;37.37;22.47;100905.22;4435055;32;19971;-67
2022/07/23 08:50:15;;;;;;;;;;;;;;;37.32;22.66;100899.66;4433936;32;20007;-68
2022/07/23 08:52:40;;;;;;;;;;;;;;;37.69;22.13;100903.84;4435734;32;20430;-68
2022/07/23 08:55:07;;;;;;;;;;;;;;;37.39;23.03;100898.72;4435093;32;20041;-67
2022/07/23 08:57:32;;;;;;;;;;;;;;;37.98;22.25;100889.75;4435662;32;19988;-67
2022/07/23 08:59:58;;;;;;;;;;;;;;;37.88;22.38;100891.97;4435012;32;19969;-67
2022/07/23 09:02:24;;;;;;;;;;;;;;;38.05;22.23;100891.72;4433530;32;19958;-67
2022/07/23 09:04:50;;;;;;;;;;;;;;;38.05;22.07;100891.72;4434512;32;20007;-67
2022/07/23 09:07:15;;;;;;;;;;;;;;;38.10;22.08;100898.66;4436103;32;20227;-67
2022/07/23 09:09:41;;;;;;;;;;;;;;;38.23;22.01;100898.09;4434040;32;19990;-67
2022/07/23 09:12:08;;;;;;;;;;;;;;;37.78;22.42;100900.88;4421150;32;20646;-67
2022/07/23 09:17:14;;;;;;;;;;;;;;;37.47;22.81;100905.94;3951795;32;15727204;-68
2022/07/23 09:19:40;;;;;;;;;;;;;;;37.47;22.81;100905.94;4429497;32;19961;-68
2022/07/23 09:22:26;;;;;;;;;;;;;;;37.14;23.18;100895.38;4429693;32;20193;-67
2022/07/23 09:25:08;;;;;;;;;;;;;;;37.02;23.41;100894.50;4427472;32;19964;-68
2022/07/23 09:27:54;;;;;;;;;;;;;;;36.96;23.41;100894.06;4430666;32;19990;-68
2022/07/23 09:30:21;;;;;;;;;;;;;;;36.80;23.63;100898.72;4431250;32;21035;-68
2022/07/23 09:33:06;;;;;;;;;;;;;;;36.90;23.63;100902.41;4431224;32;19984;-68
2022/07/23 09:35:51;;;;;;;;;;;;;;;37.58;23.19;100893.50;4428631;32;20370;-68
2022/07/23 09:38:18;;;;;;;;;;;;;;;38.16;22.36;100887.34;4426644;32;20314;-68
2022/07/23 09:40:45;;;;;;;;;;;;;;;37.62;22.21;100893.03;4430741;32;19967;-68
2022/07/23 09:43:10;;;;;;;;;;;;;;;38.11;21.75;100886.28;4430866;32;20284;-68
2022/07/23 09:45:39;;;;;;;;;;;;;;;37.82;22.03;100886.44;4429857;32;20554;-68
2022/07/23 09:48:22;;;;;;;;;;;;;;;38.15;21.57;100883.63;4426291;32;20018;-68
2022/07/23 09:50:50;;;;;;;;;;;;;;;37.70;22.11;100884.84;4429239;32;20347;-68
2022/07/23 09:53:24;;;;;;;;;;;;;;;37.98;21.47;100889.75;4429376;32;20063;-69
2022/07/23 09:55:51;;;;;;;;;;;;;;;37.22;22.01;100898.94;4429885;32;19954;-68
2022/07/23 09:58:21;;;;;;;;;;;;;;;37.62;21.70;100893.03;4425884;32;20000;-68
2022/07/23 10:00:49;;;;;;;;;;;;;;;38.10;21.32;100896.50;4415248;32;20397;-68
2022/07/23 10:03:15;;;;;;;;;;;;;;;38.63;20.86;100892.84;4430444;32;19957;-67
2022/07/23 10:05:43;;;;;;;;;;;;;;;38.76;20.76;100892.22;4429409;32;19984;-67
2022/07/23 10:08:10;;;;;;;;;;;;;;;38.26;20.92;100888.03;4428108;32;19957;-67
2022/07/23 10:10:37;;;;;;;;;;;;;;;37.00;21.98;100900.22;4428459;32;20430;-68
2022/07/23 10:15:46;;;;;;;;;;;;;;;39.41;20.26;100885.47;3952801;32;15722636;-68
2022/07/23 10:18:12;;;;;;;;;;;;;;;39.41;20.26;100885.47;4428291;32;20271;-68
2022/07/23 10:20:39;;;;;;;;;;;;;;;39.72;19.78;100882.28;4426169;32;20003;-67
2022/07/23 10:23:11;;;;;;;;;;;;;;;40.15;19.19;100884.25;4427814;32;21066;-68
2022/07/23 10:25:41;;;;;;;;;;;;;;;39.33;19.77;100885.69;4426459;32;20014;-68
2022/07/23 10:36:23;;;;;;;;;;;;;;;38.45;20.93;100887.84;3951498;32;15722537;-67
2022/07/23 10:39:05;;;;;;;;;;;;;;;38.45;20.93;100887.84;4433840;32;19964;-67
2022/07/23 10:41:32;;;;;;;;;;;;;;;38.16;20.94;100881.47;4435959;32;20047;-68
2022/07/23 10:44:14;;;;;;;;;;;;;;;38.66;20.79;100879.00;4436339;32;20020;-68
2022/07/23 10:49:36;;;;;;;;;;;;;;;40.13;19.24;100878.25;3958390;32;15725260;-68
2022/07/23 10:52:17;;;;;;;;;;;;;;;40.13;19.24;100878.25;4443762;32;20355;-67
2022/07/23 10:54:44;;;;;;;;;;;;;;;39.26;19.54;100880.84;4442304;32;20009;-67
2022/07/23 10:57:11;;;;;;;;;;;;;;;38.91;19.58;100879.22;4442870;32;20008;-67
2022/07/23 10:59:56;;;;;;;;;;;;;;;39.16;19.30;100868.41;4445033;32;19988;-67
2022/07/23 11:02:23;;;;;;;;;;;;;;;39.65;18.96;100876.00;4441534;32;19997;-67
2022/07/23 11:04:50;;;;;;;;;;;;;;;39.70;19.25;100874.06;4439442;32;19984;-67
2022/07/23 11:07:16;;;;;;;;;;;;;;;39.93;19.09;100868.16;4439715;32;20026;-67
2022/07/23 11:09:42;;;;;;;;;;;;;;;39.68;19.23;100879.84;4440824;32;20009;-67
2022/07/23 11:12:28;;;;;;;;;;;;;;;39.78;19.27;100864.97;4439982;32;20389;-67
2022/07/23 11:15:13;;;;;;;;;;;;;;;39.72;19.02;100863.16;4441357;32;20350;-68
2022/07/23 11:20:23;;;;;;;;;;;;;;;39.12;19.71;100856.38;3943031;32;15732419;-68
2022/07/23 11:22:50;;;;;;;;;;;;;;;38.84;20.11;100854.53;4419239;32;20328;-68
2022/07/23 11:25:33;;;;;;;;;;;;;;;38.14;20.49;100867.37;4421570;32;20090;-67
2022/07/23 11:28:16;;;;;;;;;;;;;;;37.77;20.35;100866.25;4421354;32;20062;-67
2022/07/23 11:30:43;;;;;;;;;;;;;;;37.76;21.10;100862.53;4418745;32;20703;-68
2022/07/23 11:35:45;;;;;;;;;;;;;;;38.33;20.56;100855.47;3949949;32;15751622;-67
2022/07/23 11:38:15;;;;;;;;;;;;;;;38.33;20.56;100855.47;4436185;32;20005;-67
2022/07/23 11:40:43;;;;;;;;;;;;;;;37.92;20.73;100859.97;4435316;32;19949;-68
2022/07/23 11:43:09;;;;;;;;;;;;;;;37.18;21.26;100863.41;4435873;32;19957;-67
2022/07/23 11:45:43;;;;;;;;;;;;;;;36.43;22.30;100854.13;4434878;32;20108;-68
2022/07/23 11:48:15;;;;;;;;;;;;;;;36.94;21.88;100855.75;4434244;32;19957;-68
2022/07/23 11:50:40;;;;;;;;;;;;;;;37.32;21.65;100853.47;4434254;32;19964;-67
2022/07/23 11:53:06;;;;;;;;;;;;;;;37.42;21.61;100853.41;4432609;32;19985;-67
2022/07/23 11:55:32;;;;;;;;;;;;;;;36.78;22.15;100854.56;4434219;32;19949;-67
2022/07/23 11:57:57;;;;;;;;;;;;;;;36.30;22.66;100856.75;4435296;32;19988;-67
2022/07/23 12:00:24;;;;;;;;;;;;;;;36.30;22.56;100860.47;4433020;32;19976;-67
2022/07/23 12:02:51;;;;;;;;;;;;;;;36.40;22.47;100866.31;4434309;32;20006;-67
2022/07/23 12:05:18;;;;;;;;;;;;;;;35.64;23.70;100866.97;4434014;32;19949;-67
2022/07/23 12:07:44;;;;;;;;;;;;;;;36.41;23.05;100856.91;4437261;32;20001;-67
2022/07/23 12:10:12;;;;;;;;;;;;;;;36.83;22.78;100862.25;4434096;32;19980;-67
2022/07/23 12:12:42;;;;;;;;;;;;;;;37.44;21.90;100862.38;4433639;32;20016;-67
2022/07/23 12:15:08;;;;;;;;;;;;;;;35.78;23.53;100862.22;4434413;32;20004;-68
2022/07/23 12:17:37;;;;;;;;;;;;;;;36.21;23.23;100858.28;4420145;32;19948;-67
2022/07/23 12:20:05;;;;;;;;;;;;;;;36.25;22.77;100858.59;4432229;32;20017;-67
2022/07/23 12:22:35;;;;;;;;;;;;;;;36.23;22.75;100862.12;4434127;32;20003;-67
2022/07/23 12:25:02;;;;;;;;;;;;;;;36.66;22.25;100865.38;4435043;32;20291;-68
2022/07/23 12:27:28;;;;;;;;;;;;;;;36.90;22.20;100873.06;4434391;32;19957;-68
2022/07/23 12:29:54;;;;;;;;;;;;;;;36.74;22.03;100872.62;4434228;32;19953;-67
2022/07/23 12:32:22;;;;;;;;;;;;;;;35.84;22.86;100869.38;4434276;32;19984;-67
2022/07/23 12:34:48;;;;;;;;;;;;;;;36.34;22.60;100875.44;4432285;32;20012;-67
2022/07/23 12:37:34;;;;;;;;;;;;;;;36.56;22.65;100877.09;4434311;32;20906;-67
2022/07/23 12:40:18;;;;;;;;;;;;;;;36.41;22.78;100870.81;4431181;32;20317;-67
2022/07/23 12:42:44;;;;;;;;;;;;;;;36.36;22.77;100874.81;4434821;32;20548;-67
2022/07/23 12:45:11;;;;;;;;;;;;;;;36.58;22.60;100870.63;4431379;32;19953;-67
2022/07/23 12:47:58;;;;;;;;;;;;;;;36.36;23.01;100868.94;4425408;32;19964;-68
2022/07/23 12:50:43;;;;;;;;;;;;;;;36.53;22.62;100854.13;4422090;32;19973;-67
2022/07/23 12:55:46;;;;;;;;;;;;;;;37.08;21.92;100845.03;3967706;31;15718424;-68
2022/07/23 12:58:15;;;;;;;;;;;;;;;37.08;21.92;100845.03;4452444;32;20479;-68
2022/07/23 13:00:49;;;;;;;;;;;;;;;36.85;22.15;100839.75;4444175;32;20042;-68
2022/07/23 13:03:21;;;;;;;;;;;;;;;36.43;22.69;100854.13;4449721;32;20339;-68
2022/07/23 13:05:47;;;;;;;;;;;;;;;37.00;22.09;100838.59;4448419;32;20034;-68
2022/07/23 13:08:12;;;;;;;;;;;;;;;37.35;21.60;100840.47;4450733;32;19953;-67